createdAt,value
2018-07-20T00:01:10.723Z,99.90
2018-07-20T00:03:39.020Z,99.90
2018-07-20T00:06:07.314Z,99.90
2018-07-20T00:08:35.600Z,99.90
2018-07-20T00:11:03.878Z,99.90
2018-07-20T00:13:32.282Z,99.90
2018-07-20T00:16:00.542Z,99.90
2018-07-20T00:18:28.843Z,99.90
2018-07-20T00:20:57.114Z,99.90
2018-07-20T00:23:25.385Z,99.90
2018-07-20T00:25:53.659Z,99.90
2018-07-20T00:28:21.975Z,99.90
2018-07-20T00:30:50.242Z,99.90
2018-07-20T00:33:18.518Z,99.90
2018-07-20T00:35:46.815Z,99.90
2018-07-20T00:38:15.081Z,99.90
2018-07-20T00:40:43.356Z,99.90
2018-07-20T00:43:11.644Z,99.90
2018-07-20T00:45:39.951Z,99.90
2018-07-20T00:48:08.224Z,99.90
2018-07-20T00:50:36.518Z,99.90
2018-07-20T00:53:04.858Z,99.90
2018-07-20T00:55:33.159Z,99.90
2018-07-20T01:00:29.477Z,99.90
2018-07-20T01:02:57.895Z,99.90
2018-07-20T01:07:54.202Z,99.90
2018-07-20T01:10:22.563Z,99.90
2018-07-20T01:12:50.861Z,99.90
2018-07-20T01:15:19.129Z,99.90
2018-07-20T01:17:47.400Z,99.90
2018-07-20T01:20:16.218Z,99.90
2018-07-20T01:22:44.506Z,99.90
2018-07-20T01:25:12.775Z,99.90
2018-07-20T01:27:41.078Z,99.90
2018-07-20T01:32:37.365Z,99.90
2018-07-20T01:35:05.638Z,99.90
2018-07-20T01:37:33.930Z,99.90
2018-07-20T01:40:02.254Z,99.90
2018-07-20T01:42:30.527Z,99.90
2018-07-20T01:44:58.819Z,99.90
2018-07-20T01:47:27.103Z,99.90
2018-07-20T01:49:55.434Z,99.90
2018-07-20T01:52:23.724Z,99.90
2018-07-20T01:54:51.992Z,99.90
2018-07-20T01:57:20.268Z,99.90
2018-07-20T01:59:48.527Z,99.90
2018-07-20T02:02:16.794Z,99.90
2018-07-20T02:04:45.062Z,99.90
2018-07-20T02:07:13.358Z,99.90
2018-07-20T02:09:41.646Z,99.90
2018-07-20T02:12:09.909Z,99.90
2018-07-20T02:14:38.182Z,99.90
2018-07-20T02:17:06.457Z,99.90
2018-07-20T02:19:34.738Z,99.90
2018-07-20T02:22:03.022Z,99.90
2018-07-20T02:24:31.301Z,99.90
2018-07-20T02:26:59.579Z,99.90
2018-07-20T02:29:27.916Z,99.90
2018-07-20T02:31:56.151Z,99.90
2018-07-20T02:34:24.440Z,99.90
2018-07-20T02:36:52.737Z,99.90
2018-07-20T02:39:21.037Z,99.90
2018-07-20T02:41:49.291Z,99.90
2018-07-20T02:44:17.577Z,99.90
2018-07-20T02:46:45.847Z,99.90
2018-07-20T02:49:14.131Z,99.90
2018-07-20T02:51:42.409Z,99.90
2018-07-20T02:54:11.702Z,99.90
2018-07-20T02:56:39.967Z,99.90
2018-07-20T02:59:08.259Z,99.90
2018-07-20T03:01:36.539Z,99.90
2018-07-20T03:04:04.832Z,99.90
2018-07-20T03:06:33.106Z,99.90
2018-07-20T03:09:01.467Z,99.90
2018-07-20T03:11:29.675Z,99.90
2018-07-20T03:13:57.937Z,99.90
2018-07-20T03:16:26.218Z,99.90
2018-07-20T03:18:54.499Z,99.90
2018-07-20T03:21:22.774Z,99.90
2018-07-20T03:23:51.040Z,99.90
2018-07-20T03:26:19.336Z,99.90
2018-07-20T03:28:47.615Z,99.90
2018-07-20T03:31:15.887Z,99.90
2018-07-20T03:33:44.187Z,99.90
2018-07-20T03:36:12.519Z,99.90
2018-07-20T03:38:40.790Z,99.90
2018-07-20T03:41:09.106Z,99.90
2018-07-20T03:43:37.481Z,99.90
2018-07-20T03:46:05.751Z,99.90
2018-07-20T03:48:34.034Z,99.90
2018-07-20T03:51:02.318Z,99.90
2018-07-20T03:53:30.794Z,99.90
2018-07-20T03:55:59.210Z,99.90
2018-07-20T03:58:27.496Z,99.90
2018-07-20T04:00:55.757Z,99.90
2018-07-20T04:03:37.318Z,99.90
2018-07-20T04:06:05.578Z,99.90
2018-07-20T04:08:33.891Z,99.90
2018-07-20T04:11:02.391Z,99.90
2018-07-20T04:13:30.692Z,99.90
2018-07-20T04:15:58.992Z,99.90
2018-07-20T04:18:27.263Z,99.90
2018-07-20T04:20:55.574Z,99.90
2018-07-20T04:23:23.850Z,99.90
2018-07-20T04:25:52.279Z,99.90
2018-07-20T04:28:20.637Z,99.90
2018-07-20T04:30:48.904Z,99.90
2018-07-20T04:33:17.264Z,99.90
2018-07-20T04:35:45.533Z,99.90
2018-07-20T04:38:13.831Z,99.90
2018-07-20T04:40:42.147Z,99.90
2018-07-20T04:43:10.470Z,99.90
2018-07-20T04:48:06.743Z,99.90
2018-07-20T04:50:35.030Z,99.90
2018-07-20T04:53:03.330Z,99.90
2018-07-20T04:55:31.601Z,99.90
2018-07-20T04:57:59.881Z,99.90
2018-07-20T05:00:28.902Z,99.90
2018-07-20T05:05:25.397Z,99.90
2018-07-20T05:07:53.695Z,99.90
2018-07-20T05:10:21.946Z,99.90
2018-07-20T05:12:50.197Z,99.90
2018-07-20T05:15:18.461Z,99.90
2018-07-20T05:17:46.749Z,99.90
2018-07-20T05:20:15.014Z,99.90
2018-07-20T05:22:43.277Z,99.90
2018-07-20T05:25:12.779Z,99.90
2018-07-20T05:27:41.032Z,99.90
2018-07-20T05:30:09.289Z,99.90
2018-07-20T05:32:37.604Z,99.90
2018-07-20T05:35:05.816Z,99.90
2018-07-20T05:37:34.079Z,99.90
2018-07-20T05:40:02.455Z,99.90
2018-07-20T05:42:30.719Z,99.90
2018-07-20T05:44:58.967Z,99.90
2018-07-20T05:47:27.222Z,99.90
2018-07-20T05:49:55.479Z,99.90
2018-07-20T05:52:23.733Z,99.90
2018-07-20T05:54:51.986Z,99.90
2018-07-20T05:57:20.239Z,99.90
2018-07-20T05:59:48.494Z,99.90
2018-07-20T06:02:16.990Z,99.90
2018-07-20T06:07:13.309Z,99.90
2018-07-20T06:09:41.590Z,99.90
2018-07-20T06:12:10.451Z,99.90
2018-07-20T06:14:38.723Z,99.90
2018-07-20T06:17:06.984Z,99.90
2018-07-20T06:19:35.263Z,99.90
2018-07-20T06:22:03.707Z,99.90
2018-07-20T06:24:32.004Z,99.90
2018-07-20T06:27:00.277Z,99.90
2018-07-20T06:29:28.541Z,99.90
2018-07-20T06:31:56.880Z,99.90
2018-07-20T06:34:25.184Z,99.90
2018-07-20T06:36:53.454Z,99.90
2018-07-20T06:39:21.738Z,99.90
2018-07-20T06:41:50.004Z,99.90
2018-07-20T06:44:18.281Z,99.90
2018-07-20T06:46:46.550Z,99.90
2018-07-20T06:49:14.838Z,99.90
2018-07-20T06:51:43.114Z,99.90
2018-07-20T06:54:11.390Z,99.90
2018-07-20T06:56:39.669Z,99.90
2018-07-20T06:59:07.940Z,99.90
2018-07-20T07:01:36.208Z,99.90
2018-07-20T07:06:32.489Z,97.90
2018-07-20T07:09:00.733Z,97.20
2018-07-20T07:11:29.010Z,93.50
2018-07-20T07:13:57.314Z,92.00
2018-07-20T07:16:25.617Z,87.20
2018-07-20T07:18:53.887Z,77.60
2018-07-20T07:21:22.142Z,72.30
2018-07-20T07:23:50.391Z,60.00
2018-07-20T07:26:18.656Z,55.00
2018-07-20T07:28:46.913Z,50.00
2018-07-20T07:31:15.175Z,46.30
2018-07-20T07:33:43.449Z,45.50
2018-07-20T07:36:11.697Z,45.80
2018-07-20T07:38:39.993Z,45.80
2018-07-20T07:41:08.475Z,43.30
2018-07-20T07:43:36.737Z,42.30
2018-07-20T07:46:05.030Z,39.20
2018-07-20T07:48:33.275Z,42.00
2018-07-20T07:51:01.528Z,41.70
2018-07-20T07:53:29.814Z,41.90
2018-07-20T07:55:58.095Z,42.70
2018-07-20T08:00:54.331Z,43.30
2018-07-20T08:03:22.632Z,44.80
2018-07-20T08:08:18.900Z,48.00
2018-07-20T08:10:47.210Z,47.20
2018-07-20T08:13:15.492Z,48.60
2018-07-20T08:15:44.128Z,49.10
2018-07-20T08:18:12.376Z,52.80
2018-07-20T08:20:40.636Z,51.30
2018-07-20T08:23:08.918Z,49.90
2018-07-20T08:25:37.180Z,52.30
2018-07-20T08:28:05.653Z,50.20
2018-07-20T08:30:33.935Z,50.50
2018-07-20T08:33:02.259Z,51.40
2018-07-20T08:35:30.545Z,50.70
2018-07-20T08:37:58.819Z,48.70
2018-07-20T08:40:27.089Z,49.00
2018-07-20T08:42:55.379Z,46.00
2018-07-20T08:45:23.665Z,45.00
2018-07-20T08:47:51.936Z,43.10
2018-07-20T08:50:20.193Z,41.00
2018-07-20T08:52:48.498Z,40.20
2018-07-20T08:55:16.783Z,37.80
2018-07-20T08:57:45.057Z,38.80
2018-07-20T09:00:13.346Z,39.00
2018-07-20T09:02:41.598Z,39.00
2018-07-20T09:05:09.890Z,39.30
2018-07-20T09:07:38.150Z,39.60
2018-07-20T09:10:06.427Z,42.60
2018-07-20T09:12:34.761Z,41.40
2018-07-20T09:15:03.048Z,41.80
2018-07-20T09:17:31.306Z,42.20
2018-07-20T09:19:59.758Z,46.10
2018-07-20T09:22:28.050Z,43.70
2018-07-20T09:24:56.317Z,43.00
2018-07-20T09:27:24.574Z,41.30
2018-07-20T09:29:52.882Z,42.90
2018-07-20T09:32:21.214Z,41.00
2018-07-20T09:34:49.493Z,42.60
2018-07-20T09:37:17.775Z,41.60
2018-07-20T09:39:46.046Z,42.80
2018-07-20T09:42:14.349Z,43.20
2018-07-20T09:44:42.627Z,42.70
2018-07-20T09:47:10.901Z,43.50
2018-07-20T09:49:39.306Z,42.30
2018-07-20T09:52:07.631Z,40.80
2018-07-20T09:54:35.909Z,42.50
2018-07-20T09:57:04.189Z,39.30
2018-07-20T09:59:32.503Z,41.90
2018-07-20T10:02:00.782Z,41.10
2018-07-20T10:04:29.042Z,38.70
2018-07-20T10:06:57.306Z,40.30
2018-07-20T10:09:25.589Z,43.80
2018-07-20T10:11:53.856Z,40.50
2018-07-20T10:14:22.122Z,39.20
2018-07-20T10:16:50.382Z,38.40
2018-07-20T10:19:18.644Z,37.20
2018-07-20T10:21:46.930Z,38.90
2018-07-20T10:24:15.196Z,38.50
2018-07-20T10:26:43.565Z,38.40
2018-07-20T10:29:11.829Z,38.30
2018-07-20T10:31:40.093Z,37.30
2018-07-20T10:34:08.496Z,36.10
2018-07-20T10:36:36.776Z,36.50
2018-07-20T10:39:07.246Z,32.70
2018-07-20T10:41:35.754Z,33.50
2018-07-20T10:44:04.062Z,35.50
2018-07-20T10:46:32.324Z,32.00
2018-07-20T10:49:00.793Z,32.40
2018-07-20T10:51:29.073Z,28.10
2018-07-20T10:53:57.438Z,26.20
2018-07-20T10:56:25.783Z,26.30
2018-07-20T10:58:54.723Z,26.60
2018-07-20T11:01:23.080Z,25.30
2018-07-20T11:03:51.434Z,23.50
2018-07-20T11:06:19.685Z,22.50
2018-07-20T11:08:47.950Z,23.70
2018-07-20T11:11:16.203Z,23.00
2018-07-20T11:13:44.513Z,24.50
2018-07-20T11:16:12.747Z,24.20
2018-07-20T11:18:41.025Z,25.30
2018-07-20T11:21:09.278Z,25.30
2018-07-20T11:23:37.554Z,26.20
2018-07-20T11:26:06.157Z,25.50
2018-07-20T11:28:34.568Z,27.30
2018-07-20T11:31:02.849Z,26.50
2018-07-20T11:33:31.117Z,28.00
2018-07-20T11:35:59.612Z,28.00
2018-07-20T11:40:55.853Z,27.00
2018-07-20T11:43:24.102Z,27.00
2018-07-20T11:45:52.368Z,28.20
2018-07-20T11:48:20.619Z,27.40
2018-07-20T11:50:48.869Z,27.60
2018-07-20T11:53:17.131Z,26.10
2018-07-20T11:55:45.428Z,28.60
2018-07-20T11:58:13.704Z,26.60
2018-07-20T12:00:42.019Z,26.60
2018-07-20T12:03:10.295Z,27.10
2018-07-20T12:05:38.557Z,28.00
2018-07-20T12:08:06.847Z,29.30
2018-07-20T12:10:35.137Z,27.50
2018-07-20T12:13:06.387Z,28.00
2018-07-20T12:15:34.662Z,27.60
2018-07-20T12:18:02.962Z,28.90
2018-07-20T12:20:31.230Z,27.30
2018-07-20T12:22:59.495Z,26.50
2018-07-20T12:25:27.767Z,28.00
2018-07-20T12:27:56.027Z,28.70
2018-07-20T12:30:24.286Z,28.10
2018-07-20T12:32:52.546Z,27.90
2018-07-20T12:35:20.811Z,27.90
2018-07-20T12:37:49.083Z,26.20
2018-07-20T12:40:17.343Z,27.00
2018-07-20T12:42:45.611Z,27.70
2018-07-20T12:45:13.910Z,28.80
2018-07-20T12:47:42.195Z,26.80
2018-07-20T12:52:38.499Z,27.00
2018-07-20T12:55:06.770Z,28.10
2018-07-20T12:57:35.063Z,27.80
2018-07-20T13:00:03.379Z,27.60
2018-07-20T13:02:31.666Z,29.70
2018-07-20T13:04:59.936Z,29.10
2018-07-20T13:07:28.194Z,26.90
2018-07-20T13:09:56.470Z,27.30
2018-07-20T13:12:24.751Z,28.60
2018-07-20T13:14:53.019Z,28.00
2018-07-20T13:17:21.274Z,29.00
2018-07-20T13:19:49.582Z,28.20
2018-07-20T13:22:17.856Z,28.30
2018-07-20T13:24:46.119Z,28.70
2018-07-20T13:27:14.445Z,28.40
2018-07-20T13:29:42.730Z,29.40
2018-07-20T13:32:11.002Z,28.30
2018-07-20T13:34:39.260Z,27.50
2018-07-20T13:37:07.572Z,26.90
2018-07-20T13:39:35.846Z,26.60
2018-07-20T13:42:04.134Z,27.70
2018-07-20T13:44:32.442Z,27.40
2018-07-20T13:47:00.727Z,28.50
2018-07-20T13:49:29.011Z,27.40
2018-07-20T13:51:57.275Z,27.70
2018-07-20T13:54:25.539Z,27.50
2018-07-20T13:56:53.827Z,27.80
2018-07-20T14:01:50.130Z,27.50
2018-07-20T14:04:18.401Z,28.20
2018-07-20T14:06:46.684Z,27.50
2018-07-20T14:09:14.948Z,27.80
2018-07-20T14:11:43.312Z,27.20
2018-07-20T14:14:11.591Z,27.00
2018-07-20T14:16:39.897Z,27.20
2018-07-20T14:19:08.176Z,26.40
2018-07-20T14:21:36.454Z,26.90
2018-07-20T14:24:05.059Z,26.40
2018-07-20T14:26:33.383Z,27.50
2018-07-20T14:29:01.623Z,27.80
2018-07-20T14:31:30.034Z,28.00
2018-07-20T14:33:58.325Z,27.80
2018-07-20T14:36:26.738Z,28.70
2018-07-20T14:38:55.083Z,28.80
2018-07-20T14:41:23.350Z,29.10
2018-07-20T14:43:53.851Z,30.00
2018-07-20T14:46:22.154Z,30.00
2018-07-20T14:48:51.148Z,29.60
2018-07-20T14:51:19.950Z,29.70
2018-07-20T14:53:48.839Z,30.00
2018-07-20T14:56:17.844Z,31.10
2018-07-20T14:58:46.626Z,29.60
2018-07-20T15:01:17.330Z,30.40
2018-07-20T15:03:46.084Z,31.40
2018-07-20T15:06:14.929Z,30.70
2018-07-20T15:08:44.786Z,30.20
2018-07-20T15:11:13.657Z,32.00
2018-07-20T15:16:11.012Z,29.60
2018-07-20T15:21:08.690Z,31.30
2018-07-20T15:23:39.449Z,30.90
2018-07-20T15:26:08.632Z,32.10
2018-07-20T15:28:39.717Z,31.90
2018-07-20T15:31:11.094Z,31.30
2018-07-20T15:33:40.146Z,32.10
2018-07-20T15:36:08.860Z,32.90
2018-07-20T15:38:37.650Z,31.00
2018-07-20T15:41:06.476Z,30.90
2018-07-20T15:43:35.339Z,32.90
2018-07-20T15:46:06.564Z,33.90
2018-07-20T15:48:32.758Z,31.80
2018-07-20T15:51:01.630Z,31.20
2018-07-20T15:53:37.770Z,31.90
2018-07-20T15:58:28.061Z,31.70
2018-07-20T16:00:56.734Z,32.50
2018-07-20T16:03:25.615Z,33.30
2018-07-20T16:05:54.536Z,33.30
2018-07-20T16:08:23.382Z,31.90
2018-07-20T16:10:52.096Z,32.00
2018-07-20T16:13:20.895Z,32.30
2018-07-20T16:15:49.601Z,32.30
2018-07-20T16:18:18.517Z,32.50
2018-07-20T16:20:47.505Z,31.40
2018-07-20T16:23:16.233Z,31.20
2018-07-20T16:25:45.078Z,31.20
2018-07-20T16:28:14.246Z,31.90
2018-07-20T16:30:43.045Z,31.20
2018-07-20T16:33:12.862Z,31.70
2018-07-20T16:35:41.703Z,31.20
2018-07-20T16:38:10.425Z,33.90
2018-07-20T16:40:39.144Z,34.70
2018-07-20T16:43:08.070Z,33.70
2018-07-20T16:45:37.640Z,32.30
2018-07-20T16:48:06.588Z,32.50
2018-07-20T16:50:35.623Z,35.80
2018-07-20T16:53:04.375Z,34.30
2018-07-20T16:55:33.435Z,33.60
2018-07-20T16:58:02.121Z,34.00
2018-07-20T17:05:29.780Z,34.80
2018-07-20T17:07:58.524Z,34.60
2018-07-20T17:10:27.399Z,35.30
2018-07-20T17:12:56.580Z,35.70
2018-07-20T17:15:25.469Z,35.30
2018-07-20T17:17:54.409Z,37.50
2018-07-20T17:20:23.105Z,37.50
2018-07-20T17:22:52.108Z,36.20
2018-07-20T17:25:20.441Z,37.00
2018-07-20T17:27:49.585Z,36.90
2018-07-20T17:30:18.339Z,36.50
2018-07-20T17:32:47.386Z,36.80
2018-07-20T17:35:16.949Z,37.50
2018-07-20T17:37:45.829Z,37.00
2018-07-20T17:40:14.693Z,37.20
2018-07-20T17:42:43.930Z,37.60
2018-07-20T17:45:14.109Z,38.20
2018-07-20T17:47:42.804Z,38.20
2018-07-20T17:50:11.708Z,37.70
2018-07-20T17:52:40.435Z,38.10
2018-07-20T17:55:09.145Z,39.80
2018-07-20T17:57:37.846Z,39.40
2018-07-20T18:00:06.714Z,39.20
2018-07-20T18:02:35.633Z,39.60
2018-07-20T18:05:04.286Z,40.30
2018-07-20T18:07:33.017Z,40.70
2018-07-20T18:10:01.435Z,40.10
2018-07-20T18:12:29.747Z,40.30
2018-07-20T18:14:58.091Z,40.90
2018-07-20T18:17:26.378Z,40.40
2018-07-20T18:19:54.772Z,40.20
2018-07-20T18:22:23.063Z,40.40
2018-07-20T18:24:51.315Z,41.70
2018-07-20T18:27:19.847Z,40.90
2018-07-20T18:29:47.995Z,43.00
2018-07-20T18:32:16.253Z,44.10
2018-07-20T18:37:12.574Z,44.80
2018-07-20T18:39:40.832Z,46.30
2018-07-20T18:42:09.244Z,47.10
2018-07-20T18:49:33.682Z,51.10
2018-07-20T18:52:01.964Z,51.90
2018-07-20T18:54:30.371Z,52.40
2018-07-20T18:56:58.643Z,52.20
2018-07-20T18:59:26.898Z,53.00
2018-07-20T19:01:55.161Z,53.20
2018-07-20T19:04:23.503Z,53.50
2018-07-20T19:06:51.754Z,54.40
2018-07-20T19:09:20.028Z,54.90
2018-07-20T19:11:48.417Z,55.60
2018-07-20T19:14:16.682Z,57.40
2018-07-20T19:16:45.066Z,58.20
2018-07-20T19:19:14.024Z,58.90
2018-07-20T19:24:11.195Z,61.10
2018-07-20T19:26:40.018Z,64.20
2018-07-20T19:29:08.818Z,65.50
2018-07-20T19:31:37.505Z,68.30
2018-07-20T19:34:06.276Z,72.40
2018-07-20T19:36:34.969Z,75.80
2018-07-20T19:39:04.430Z,77.50
2018-07-20T19:41:33.229Z,77.40
2018-07-20T19:44:02.312Z,78.60
2018-07-20T19:46:31.063Z,78.00
2018-07-20T19:49:00.762Z,80.40
2018-07-20T19:51:29.102Z,84.50
2018-07-20T19:53:57.568Z,84.30
2018-07-20T19:56:25.931Z,85.70
2018-07-20T19:58:54.378Z,86.90
2018-07-20T20:01:22.691Z,88.90
2018-07-20T20:03:50.989Z,91.00
2018-07-20T20:06:19.864Z,91.00
2018-07-20T20:08:48.619Z,91.70
2018-07-20T20:11:17.298Z,92.70
2018-07-20T20:13:46.084Z,92.60
2018-07-20T20:16:15.930Z,93.30
2018-07-20T20:18:45.696Z,93.80
2018-07-20T20:21:14.731Z,94.50
2018-07-20T20:23:44.790Z,95.50
2018-07-20T20:26:14.139Z,95.70
2018-07-20T20:28:43.728Z,96.20
2018-07-20T20:31:12.789Z,95.50
2018-07-20T20:33:41.658Z,96.60
2018-07-20T20:36:10.380Z,96.90
2018-07-20T20:38:39.306Z,97.20
2018-07-20T20:41:08.079Z,96.50
2018-07-20T20:43:37.106Z,99.60
2018-07-20T20:46:06.268Z,98.70
2018-07-20T20:48:34.740Z,98.90
2018-07-20T20:51:03.088Z,99.50
2018-07-20T20:53:31.401Z,99.80
2018-07-20T20:55:59.657Z,99.50
2018-07-20T20:58:27.962Z,99.90
2018-07-20T21:00:56.245Z,99.90
2018-07-20T21:03:24.542Z,99.90
2018-07-20T21:05:52.806Z,99.30
2018-07-20T21:08:21.126Z,99.90
2018-07-20T21:10:49.389Z,99.90
2018-07-20T21:13:17.758Z,99.90
2018-07-20T21:15:46.029Z,99.90
2018-07-20T21:18:14.458Z,99.90
2018-07-20T21:20:42.782Z,99.90
2018-07-20T21:23:11.047Z,99.90
2018-07-20T21:25:39.381Z,99.90
2018-07-20T21:28:07.629Z,99.90
2018-07-20T21:30:35.926Z,99.90
2018-07-20T21:33:04.192Z,99.90
2018-07-20T21:38:00.476Z,99.90
2018-07-20T21:40:28.891Z,99.90
2018-07-20T21:42:57.154Z,99.90
2018-07-20T21:45:25.464Z,99.90
2018-07-20T21:47:53.667Z,99.90
2018-07-20T21:50:21.925Z,99.90
2018-07-20T21:52:50.325Z,99.90
2018-07-20T21:55:18.581Z,99.90
2018-07-20T21:57:46.838Z,99.90
2018-07-20T22:00:17.506Z,99.90
2018-07-20T22:02:46.132Z,99.90
2018-07-20T22:05:14.518Z,99.90
2018-07-20T22:07:42.997Z,99.90
2018-07-20T22:10:11.278Z,99.90
2018-07-20T22:12:39.634Z,99.90
2018-07-20T22:15:08.749Z,99.90
2018-07-20T22:17:37.090Z,99.90
2018-07-20T22:20:05.957Z,99.90
2018-07-20T22:22:34.656Z,99.90
2018-07-20T22:25:02.967Z,99.90
2018-07-20T22:27:31.257Z,99.90
2018-07-20T22:29:59.815Z,99.90
2018-07-20T22:32:28.071Z,99.90
2018-07-20T22:34:56.373Z,99.90
2018-07-20T22:37:24.704Z,99.90
2018-07-20T22:39:52.968Z,99.90
2018-07-20T22:42:21.250Z,99.90
2018-07-20T22:44:49.522Z,99.90
2018-07-20T22:47:17.804Z,99.90
2018-07-20T22:49:49.135Z,99.90
2018-07-20T22:52:17.446Z,99.90
2018-07-20T22:54:45.715Z,99.90
2018-07-20T22:57:13.999Z,99.90
2018-07-20T22:59:42.408Z,99.90
2018-07-20T23:02:10.753Z,99.90
2018-07-20T23:04:39.019Z,99.90
2018-07-20T23:07:07.285Z,99.90
2018-07-20T23:09:35.541Z,99.90
2018-07-20T23:12:03.823Z,99.90
2018-07-20T23:14:32.129Z,99.90
2018-07-20T23:17:00.390Z,99.90
2018-07-20T23:19:28.662Z,99.90
2018-07-20T23:21:56.985Z,99.90
2018-07-20T23:24:25.257Z,99.90
2018-07-20T23:26:53.519Z,99.90
2018-07-20T23:29:22.122Z,99.90
2018-07-20T23:31:50.341Z,99.90
2018-07-20T23:34:18.598Z,99.90
2018-07-20T23:36:46.856Z,99.90
2018-07-20T23:39:15.111Z,99.90
2018-07-20T23:41:43.382Z,99.90
2018-07-20T23:44:11.645Z,99.90
2018-07-20T23:46:39.922Z,99.90
2018-07-20T23:49:08.198Z,99.90
2018-07-20T23:51:36.455Z,99.90
2018-07-20T23:54:04.717Z,99.90
2018-07-20T23:56:33.137Z,99.90
2018-07-20T23:59:01.414Z,99.90
